createdAt,value
2023-02-14T00:01:07.518Z,-0.86
2023-02-14T00:03:35.711Z,-0.87
2023-02-14T00:06:09.042Z,-0.83
2023-02-14T00:08:36.977Z,-0.94
2023-02-14T00:11:05.381Z,-0.93
2023-02-14T00:13:33.099Z,-1.08
2023-02-14T00:16:00.078Z,-1.07
2023-02-14T00:18:48.324Z,-1.05
2023-02-14T00:21:17.441Z,-1.01
2023-02-14T00:23:45.151Z,-0.92
2023-02-14T00:26:16.406Z,-0.92
2023-02-14T00:28:44.852Z,-0.96
2023-02-14T00:31:14.566Z,-1.00
2023-02-14T00:33:42.415Z,-1.00
2023-02-14T00:36:12.100Z,-0.97
2023-02-14T00:38:41.128Z,-0.89
2023-02-14T00:41:08.784Z,-0.89
2023-02-14T00:43:36.516Z,-0.94
2023-02-14T00:46:04.270Z,-0.86
2023-02-14T00:48:31.973Z,-0.88
2023-02-14T00:50:59.997Z,-0.90
2023-02-14T00:53:27.972Z,-0.97
2023-02-14T00:55:57.060Z,-1.00
2023-02-14T00:58:24.845Z,-1.02
2023-02-14T01:00:53.891Z,-1.07
2023-02-14T01:03:21.871Z,-1.16
2023-02-14T01:05:50.226Z,-1.07
2023-02-14T01:08:18.240Z,-1.07
2023-02-14T01:10:46.296Z,-1.03
2023-02-14T01:13:15.975Z,-0.98
2023-02-14T01:15:45.945Z,-0.96
2023-02-14T01:18:17.691Z,-0.95
2023-02-14T01:20:46.001Z,-0.95
2023-02-14T01:23:13.816Z,-0.90
2023-02-14T01:25:41.540Z,-0.92
2023-02-14T01:28:09.302Z,-0.96
2023-02-14T01:30:43.820Z,-0.94
2023-02-14T01:33:11.544Z,-0.98
2023-02-14T01:35:39.570Z,-0.97
2023-02-14T01:38:07.537Z,-0.98
2023-02-14T01:40:35.508Z,-0.92
2023-02-14T01:43:03.216Z,-0.92
2023-02-14T01:45:32.172Z,-1.05
2023-02-14T01:48:01.572Z,-1.08
2023-02-14T01:50:34.889Z,-1.14
2023-02-14T01:53:05.973Z,-1.14
2023-02-14T01:55:36.929Z,-1.17
2023-02-14T01:58:09.790Z,-1.21
2023-02-14T02:00:56.165Z,-1.21
2023-02-14T02:03:27.697Z,-1.21
2023-02-14T02:06:00.772Z,-1.25
2023-02-14T02:08:28.689Z,-1.23
2023-02-14T02:10:56.425Z,-1.15
2023-02-14T02:13:24.196Z,-1.11
2023-02-14T02:15:59.780Z,-1.23
2023-02-14T02:18:39.419Z,-1.18
2023-02-14T02:21:41.931Z,-1.17
2023-02-14T02:24:25.109Z,-1.27
2023-02-14T02:27:19.257Z,-1.30
2023-02-14T02:30:23.099Z,-1.21
2023-02-14T02:33:13.060Z,-1.18
2023-02-14T02:36:08.779Z,-1.14
2023-02-14T02:38:49.661Z,-1.28
2023-02-14T02:41:27.243Z,-1.27
2023-02-14T02:44:04.404Z,-1.43
2023-02-14T02:46:51.162Z,-1.45
2023-02-14T02:49:48.375Z,-1.45
2023-02-14T02:52:45.040Z,-1.54
2023-02-14T02:55:17.030Z,-1.57
2023-02-14T02:57:45.400Z,-1.52
2023-02-14T03:00:17.092Z,-1.47
2023-02-14T03:03:05.806Z,-1.53
2023-02-14T03:05:35.353Z,-1.61
2023-02-14T03:08:05.018Z,-1.54
2023-02-14T03:10:35.895Z,-1.48
2023-02-14T03:13:24.620Z,-1.46
2023-02-14T03:16:16.497Z,-1.48
2023-02-14T03:18:58.789Z,-1.54
2023-02-14T03:21:32.874Z,-1.55
2023-02-14T03:24:10.667Z,-1.60
2023-02-14T03:26:45.445Z,-1.62
2023-02-14T03:29:19.163Z,-1.60
2023-02-14T03:31:56.622Z,-1.63
2023-02-14T03:34:31.498Z,-1.62
2023-02-14T03:37:02.684Z,-1.68
2023-02-14T03:39:37.686Z,-1.70
2023-02-14T03:42:10.489Z,-1.66
2023-02-14T03:44:40.502Z,-1.70
2023-02-14T03:47:12.649Z,-1.62
2023-02-14T03:49:44.064Z,-1.62
2023-02-14T03:52:13.709Z,-1.62
2023-02-14T03:54:43.986Z,-1.63
2023-02-14T03:57:20.965Z,-1.70
2023-02-14T03:59:49.779Z,-1.66
2023-02-14T04:02:23.645Z,-1.64
2023-02-14T04:04:53.951Z,-1.61
2023-02-14T04:07:24.081Z,-1.66
2023-02-14T04:09:53.378Z,-1.76
2023-02-14T04:12:35.784Z,-1.87
2023-02-14T04:15:05.026Z,-1.88
2023-02-14T04:17:50.405Z,-1.94
2023-02-14T04:20:18.196Z,-1.95
2023-02-14T04:22:46.495Z,-1.94
2023-02-14T04:25:16.387Z,-1.97
2023-02-14T04:27:44.176Z,-1.99
2023-02-14T04:30:13.513Z,-1.98
2023-02-14T04:32:41.686Z,-1.91
2023-02-14T04:35:12.819Z,-1.82
2023-02-14T04:37:40.596Z,-1.83
2023-02-14T04:40:09.645Z,-1.87
2023-02-14T04:42:38.774Z,-1.85
2023-02-14T04:45:07.071Z,-1.77
2023-02-14T04:47:34.795Z,-1.82
2023-02-14T04:50:05.241Z,-1.83
2023-02-14T04:52:32.986Z,-1.88
2023-02-14T04:55:00.754Z,-1.92
2023-02-14T04:57:28.513Z,-2.13
2023-02-14T04:59:57.610Z,-2.05
2023-02-14T05:02:25.447Z,-2.07
2023-02-14T05:04:53.215Z,-2.06
2023-02-14T05:07:20.932Z,-2.12
2023-02-14T05:09:48.637Z,-2.13
2023-02-14T05:12:17.110Z,-2.23
2023-02-14T05:14:44.795Z,-2.31
2023-02-14T05:17:17.364Z,-2.29
2023-02-14T05:19:45.268Z,-2.29
2023-02-14T05:22:13.027Z,-2.28
2023-02-14T05:24:40.740Z,-2.31
2023-02-14T05:27:11.609Z,-2.27
2023-02-14T05:29:39.395Z,-2.32
2023-02-14T05:32:07.204Z,-2.30
2023-02-14T05:34:36.326Z,-2.37
2023-02-14T05:37:04.049Z,-2.27
2023-02-14T05:39:31.809Z,-2.31
2023-02-14T05:41:59.580Z,-2.29
2023-02-14T05:44:28.291Z,-2.28
2023-02-14T05:46:56.193Z,-2.36
2023-02-14T05:49:23.927Z,-2.38
2023-02-14T05:51:53.037Z,-2.45
2023-02-14T05:54:20.770Z,-2.40
2023-02-14T05:56:48.529Z,-2.29
2023-02-14T05:59:16.275Z,-2.30
2023-02-14T06:01:44.074Z,-2.31
2023-02-14T06:04:12.317Z,-2.36
2023-02-14T06:06:40.159Z,-2.31
2023-02-14T06:09:09.278Z,-2.44
2023-02-14T06:11:37.231Z,-2.41
2023-02-14T06:14:04.987Z,-2.38
2023-02-14T06:16:32.838Z,-2.43
2023-02-14T06:19:00.561Z,-2.44
2023-02-14T06:21:28.316Z,-2.43
2023-02-14T06:23:56.045Z,-2.42
2023-02-14T06:26:27.874Z,-2.37
2023-02-14T06:28:56.076Z,-2.32
2023-02-14T06:31:24.037Z,-2.27
2023-02-14T06:33:52.166Z,-2.23
2023-02-14T06:36:20.267Z,-2.24
2023-02-14T06:38:48.823Z,-2.23
2023-02-14T06:41:17.964Z,-2.19
2023-02-14T06:43:49.043Z,-2.09
2023-02-14T06:46:17.717Z,-2.16
2023-02-14T06:48:45.889Z,-2.10
2023-02-14T06:51:13.851Z,-2.13
2023-02-14T06:53:41.728Z,-2.06
2023-02-14T06:56:09.408Z,-1.99
2023-02-14T06:59:03.521Z,-1.98
2023-02-14T07:01:31.317Z,-1.99
2023-02-14T07:03:59.041Z,-1.93
2023-02-14T07:06:29.632Z,-1.98
2023-02-14T07:08:57.370Z,-1.98
2023-02-14T07:11:25.824Z,-2.04
2023-02-14T07:13:53.552Z,-2.01
2023-02-14T07:16:22.621Z,-2.12
2023-02-14T07:18:50.373Z,-2.12
2023-02-14T07:21:18.159Z,-2.11
2023-02-14T07:23:47.803Z,-2.09
2023-02-14T07:26:18.196Z,-2.03
2023-02-14T07:28:46.232Z,-2.02
2023-02-14T07:31:14.080Z,-1.91
2023-02-14T07:33:43.243Z,-1.82
2023-02-14T07:36:16.736Z,-1.74
2023-02-14T07:38:44.498Z,-1.62
2023-02-14T07:41:12.443Z,-1.51
2023-02-14T07:43:40.223Z,-1.48
2023-02-14T07:46:08.535Z,-1.49
2023-02-14T07:48:36.367Z,-1.43
2023-02-14T07:51:05.486Z,-1.34
2023-02-14T07:53:33.296Z,-1.27
2023-02-14T07:56:01.107Z,-1.45
2023-02-14T07:58:28.922Z,-1.39
2023-02-14T08:00:56.874Z,-1.32
2023-02-14T08:03:24.927Z,-1.44
2023-02-14T08:05:57.110Z,-1.50
2023-02-14T08:08:27.842Z,-1.50
2023-02-14T08:10:55.731Z,-1.37
2023-02-14T08:13:23.576Z,-1.38
2023-02-14T08:16:06.844Z,-1.22
2023-02-14T08:18:37.899Z,-1.18
2023-02-14T08:21:07.388Z,-1.11
2023-02-14T08:23:36.955Z,-1.00
2023-02-14T08:26:05.149Z,-0.94
2023-02-14T08:28:33.560Z,-1.05
2023-02-14T08:31:02.535Z,-1.02
2023-02-14T08:33:31.065Z,-0.83
2023-02-14T08:35:58.856Z,-0.73
2023-02-14T08:38:26.659Z,-0.71
2023-02-14T08:40:55.832Z,-0.53
2023-02-14T08:43:23.538Z,-0.54
2023-02-14T08:45:53.883Z,-0.49
2023-02-14T08:48:23.548Z,-0.52
2023-02-14T08:50:51.549Z,-0.59
2023-02-14T08:53:19.316Z,-0.47
2023-02-14T08:55:47.224Z,-0.31
2023-02-14T08:58:16.424Z,-0.43
2023-02-14T09:00:44.188Z,-0.25
2023-02-14T09:03:13.324Z,-0.19
2023-02-14T09:05:41.104Z,-0.10
2023-02-14T09:08:08.984Z,0.04
2023-02-14T09:10:37.894Z,0.06
2023-02-14T09:13:05.751Z,0.22
2023-02-14T09:15:36.843Z,0.44
2023-02-14T09:18:04.704Z,0.51
2023-02-14T09:20:32.571Z,0.74
2023-02-14T09:23:01.997Z,0.90
2023-02-14T09:25:29.718Z,0.87
2023-02-14T09:27:59.392Z,0.84
2023-02-14T09:30:29.232Z,0.80
2023-02-14T09:32:58.367Z,0.86
2023-02-14T09:35:26.185Z,0.73
2023-02-14T09:37:53.028Z,0.75
2023-02-14T09:40:21.558Z,1.02
2023-02-14T09:43:03.428Z,1.28
2023-02-14T09:45:33.350Z,1.76
2023-02-14T09:48:08.603Z,1.92
2023-02-14T09:50:43.516Z,2.18
2023-02-14T09:53:21.463Z,2.11
2023-02-14T09:55:57.027Z,2.29
2023-02-14T09:58:28.569Z,2.14
2023-02-14T10:01:01.073Z,2.42
2023-02-14T10:03:49.144Z,2.77
2023-02-14T10:06:40.633Z,3.27
2023-02-14T10:09:17.070Z,3.62
2023-02-14T10:11:47.372Z,4.42
2023-02-14T10:14:18.282Z,5.27
2023-02-14T10:16:52.680Z,5.95
2023-02-14T10:19:28.629Z,6.62
2023-02-14T10:22:00.593Z,7.24
2023-02-14T10:24:32.046Z,7.53
2023-02-14T10:27:11.012Z,8.15
2023-02-14T10:29:39.126Z,8.14
2023-02-14T10:32:15.121Z,8.36
2023-02-14T10:34:49.095Z,8.45
2023-02-14T10:37:29.579Z,9.01
2023-02-14T10:40:26.019Z,9.32
2023-02-14T10:42:59.054Z,9.11
2023-02-14T10:45:34.578Z,9.14
2023-02-14T10:48:06.189Z,8.77
2023-02-14T10:50:45.882Z,9.10
2023-02-14T10:53:20.685Z,9.36
2023-02-14T10:55:53.950Z,9.40
2023-02-14T10:58:23.670Z,9.55
2023-02-14T11:00:59.312Z,9.75
2023-02-14T11:03:28.757Z,9.36
2023-02-14T11:05:57.955Z,9.75
2023-02-14T11:08:27.845Z,9.35
2023-02-14T11:10:58.514Z,9.01
2023-02-14T11:13:31.582Z,8.86
2023-02-14T11:16:04.447Z,9.02
2023-02-14T11:18:35.786Z,9.52
2023-02-14T11:21:08.818Z,9.65
2023-02-14T11:23:40.022Z,10.22
2023-02-14T11:26:15.832Z,9.94
2023-02-14T11:28:52.174Z,10.51
2023-02-14T11:31:31.279Z,10.52
2023-02-14T11:34:01.507Z,10.58
2023-02-14T11:36:32.711Z,11.06
2023-02-14T11:39:07.473Z,10.91
2023-02-14T11:41:49.689Z,11.09
2023-02-14T11:44:22.716Z,11.00
2023-02-14T11:46:53.431Z,10.68
2023-02-14T11:49:31.159Z,10.52
2023-02-14T11:52:02.979Z,10.94
2023-02-14T11:54:35.654Z,11.23
2023-02-14T11:57:09.658Z,11.22
2023-02-14T11:59:41.908Z,11.31
2023-02-14T12:02:22.842Z,11.13
2023-02-14T12:04:53.390Z,11.15
2023-02-14T12:07:26.954Z,11.11
2023-02-14T12:10:17.111Z,11.14
2023-02-14T12:12:51.070Z,11.46
2023-02-14T12:15:29.085Z,11.03
2023-02-14T12:18:03.324Z,11.03
2023-02-14T12:20:39.526Z,11.18
2023-02-14T12:23:16.371Z,11.09
2023-02-14T12:25:50.984Z,11.08
2023-02-14T12:28:23.652Z,11.10
2023-02-14T12:30:51.485Z,11.45
2023-02-14T12:33:21.756Z,11.53
2023-02-14T12:35:59.651Z,11.28
2023-02-14T12:38:43.708Z,11.10
2023-02-14T12:41:26.331Z,11.54
2023-02-14T12:43:56.308Z,11.55
2023-02-14T12:46:44.585Z,11.79
2023-02-14T12:49:27.334Z,11.80
2023-02-14T12:52:07.970Z,11.32
2023-02-14T12:54:50.577Z,11.71
2023-02-14T12:57:32.962Z,11.49
2023-02-14T13:00:17.519Z,11.45
2023-02-14T13:03:16.206Z,10.94
2023-02-14T13:05:56.785Z,10.98
2023-02-14T13:08:40.352Z,11.40
2023-02-14T13:11:16.880Z,11.20
2023-02-14T13:13:57.204Z,11.26
2023-02-14T13:16:31.890Z,11.51
2023-02-14T13:19:07.833Z,11.46
2023-02-14T13:21:38.150Z,11.74
2023-02-14T13:24:18.801Z,11.61
2023-02-14T13:26:53.833Z,11.69
2023-02-14T13:29:24.680Z,11.68
2023-02-14T13:31:57.918Z,11.81
2023-02-14T13:34:33.403Z,11.38
2023-02-14T13:37:03.230Z,11.04
2023-02-14T13:39:38.304Z,11.22
2023-02-14T13:42:08.562Z,10.96
2023-02-14T13:44:47.699Z,11.15
2023-02-14T13:47:21.058Z,11.24
2023-02-14T13:49:51.930Z,11.09
2023-02-14T13:52:41.500Z,10.47
2023-02-14T13:55:15.564Z,10.61
2023-02-14T13:57:44.779Z,10.88
2023-02-14T14:00:42.152Z,10.77
2023-02-14T14:03:15.242Z,11.12
2023-02-14T14:06:00.740Z,11.92
2023-02-14T14:08:49.280Z,13.71
2023-02-14T14:12:00.762Z,16.25
2023-02-14T14:14:37.918Z,17.95
2023-02-14T14:17:29.349Z,18.82
2023-02-14T14:19:58.121Z,18.85
2023-02-14T14:22:26.734Z,20.00
2023-02-14T14:24:57.533Z,21.28
2023-02-14T14:27:28.203Z,22.13
2023-02-14T14:29:59.093Z,22.68
2023-02-14T14:32:30.326Z,22.81
2023-02-14T14:34:59.823Z,22.46
2023-02-14T14:37:29.558Z,22.84
2023-02-14T14:40:00.120Z,22.42
2023-02-14T14:42:30.971Z,23.06
2023-02-14T14:45:02.773Z,23.09
2023-02-14T14:47:36.824Z,22.83
2023-02-14T14:50:09.917Z,21.15
2023-02-14T14:52:42.482Z,17.09
2023-02-14T14:55:19.393Z,13.77
2023-02-14T14:57:52.256Z,11.61
2023-02-14T15:00:33.456Z,10.01
2023-02-14T15:03:07.749Z,8.86
2023-02-14T15:05:41.802Z,7.98
2023-02-14T15:08:23.722Z,7.65
2023-02-14T15:10:56.109Z,7.07
2023-02-14T15:13:50.915Z,6.68
2023-02-14T15:16:23.176Z,6.25
2023-02-14T15:18:52.570Z,6.04
2023-02-14T15:21:20.655Z,5.91
2023-02-14T15:23:48.858Z,5.77
2023-02-14T15:26:25.052Z,5.64
2023-02-14T15:28:58.062Z,5.47
2023-02-14T15:31:31.012Z,5.38
2023-02-14T15:34:01.407Z,5.27
2023-02-14T15:36:30.243Z,5.17
2023-02-14T15:38:59.679Z,5.03
2023-02-14T15:41:28.184Z,4.93
2023-02-14T15:43:57.683Z,4.81
2023-02-14T15:46:35.465Z,4.70
2023-02-14T15:49:10.170Z,4.62
2023-02-14T15:51:39.707Z,4.51
2023-02-14T15:54:10.148Z,4.40
2023-02-14T15:56:44.371Z,4.25
2023-02-14T15:59:18.318Z,4.07
2023-02-14T16:01:54.462Z,3.93
2023-02-14T16:04:26.864Z,3.89
2023-02-14T16:07:07.221Z,3.74
2023-02-14T16:09:35.632Z,3.61
2023-02-14T16:12:27.426Z,3.47
2023-02-14T16:15:04.601Z,3.35
2023-02-14T16:17:35.904Z,3.22
2023-02-14T16:20:23.579Z,3.07
2023-02-14T16:22:52.000Z,2.93
2023-02-14T16:25:20.317Z,2.78
2023-02-14T16:27:48.214Z,2.65
2023-02-14T16:30:18.672Z,2.54
2023-02-14T16:32:53.718Z,2.48
2023-02-14T16:35:22.915Z,2.29
2023-02-14T16:37:52.904Z,2.09
2023-02-14T16:40:26.436Z,1.92
2023-02-14T16:42:54.850Z,1.80
2023-02-14T16:45:22.630Z,1.72
2023-02-14T16:47:51.802Z,1.59
2023-02-14T16:50:20.398Z,1.53
2023-02-14T16:52:52.595Z,1.38
2023-02-14T16:55:20.919Z,1.31
2023-02-14T16:57:53.076Z,1.36
2023-02-14T17:00:22.057Z,1.36
2023-02-14T17:02:51.311Z,1.49
2023-02-14T17:05:19.301Z,1.59
2023-02-14T17:07:47.087Z,1.58
2023-02-14T17:10:20.586Z,1.66
2023-02-14T17:12:49.487Z,1.63
2023-02-14T17:15:21.292Z,1.57
2023-02-14T17:17:53.330Z,1.58
2023-02-14T17:20:22.039Z,1.54
2023-02-14T17:22:50.395Z,1.55
2023-02-14T17:25:18.568Z,1.62
2023-02-14T17:27:46.470Z,1.53
2023-02-14T17:30:15.806Z,1.58
2023-02-14T17:32:44.490Z,1.55
2023-02-14T17:35:14.531Z,1.53
2023-02-14T17:37:42.755Z,1.49
2023-02-14T17:40:11.612Z,1.49
2023-02-14T17:42:39.733Z,1.55
2023-02-14T17:45:08.723Z,1.32
2023-02-14T17:47:36.679Z,1.30
2023-02-14T17:50:04.748Z,1.27
2023-02-14T17:52:34.456Z,1.32
2023-02-14T17:55:02.380Z,1.16
2023-02-14T17:57:30.248Z,1.14
2023-02-14T17:59:59.698Z,1.00
2023-02-14T18:02:27.770Z,1.06
2023-02-14T18:04:57.882Z,1.05
2023-02-14T18:07:26.265Z,1.03
2023-02-14T18:09:55.581Z,0.86
2023-02-14T18:12:23.496Z,0.84
2023-02-14T18:14:53.315Z,0.79
2023-02-14T18:17:21.431Z,0.80
2023-02-14T18:19:49.329Z,0.85
2023-02-14T18:22:17.256Z,0.80
2023-02-14T18:24:45.142Z,0.70
2023-02-14T18:27:15.903Z,0.69
2023-02-14T18:29:43.819Z,0.62
2023-02-14T18:32:11.798Z,0.60
2023-02-14T18:34:39.731Z,0.56
2023-02-14T18:37:07.663Z,0.68
2023-02-14T18:39:38.647Z,0.66
2023-02-14T18:42:06.898Z,0.65
2023-02-14T18:44:36.321Z,0.59
2023-02-14T18:47:06.566Z,0.63
2023-02-14T18:49:35.172Z,0.53
2023-02-14T18:52:04.894Z,0.52
2023-02-14T18:54:32.667Z,0.41
2023-02-14T18:57:00.385Z,0.42
2023-02-14T18:59:28.104Z,0.46
2023-02-14T19:01:57.177Z,0.48
2023-02-14T19:04:24.869Z,0.49
2023-02-14T19:06:52.617Z,0.41
2023-02-14T19:09:20.467Z,0.42
2023-02-14T19:11:48.203Z,0.45
2023-02-14T19:14:15.916Z,0.40
2023-02-14T19:16:50.346Z,0.43
2023-02-14T19:19:19.728Z,0.49
2023-02-14T19:21:47.527Z,0.41
2023-02-14T19:24:17.454Z,0.44
2023-02-14T19:26:45.479Z,0.44
2023-02-14T19:29:15.791Z,0.35
2023-02-14T19:31:45.984Z,0.32
2023-02-14T19:34:17.620Z,0.38
2023-02-14T19:36:48.060Z,0.26
2023-02-14T19:39:19.030Z,0.32
2023-02-14T19:41:51.132Z,0.30
2023-02-14T19:44:19.745Z,0.41
2023-02-14T19:46:47.849Z,0.30
2023-02-14T19:49:17.301Z,0.29
2023-02-14T19:51:47.363Z,0.25
2023-02-14T19:54:15.764Z,0.20
2023-02-14T19:56:47.579Z,0.18
2023-02-14T19:59:21.737Z,0.24
2023-02-14T20:01:51.841Z,0.28
2023-02-14T20:04:22.035Z,0.35
2023-02-14T20:06:52.152Z,0.35
2023-02-14T20:09:21.930Z,0.25
2023-02-14T20:11:50.988Z,0.30
2023-02-14T20:14:20.756Z,0.25
2023-02-14T20:16:52.512Z,0.21
2023-02-14T20:19:22.146Z,0.19
2023-02-14T20:21:52.177Z,0.10
2023-02-14T20:24:21.870Z,0.07
2023-02-14T20:26:50.541Z,0.09
2023-02-14T20:29:19.016Z,0.07
2023-02-14T20:31:48.410Z,0.00
2023-02-14T20:34:19.412Z,-0.05
2023-02-14T20:36:49.639Z,-0.01
2023-02-14T20:39:18.777Z,-0.07
2023-02-14T20:41:49.885Z,-0.19
2023-02-14T20:44:21.466Z,-0.20
2023-02-14T20:46:53.484Z,-0.23
2023-02-14T20:49:22.744Z,-0.29
2023-02-14T20:51:54.309Z,-0.25
2023-02-14T20:54:25.457Z,-0.18
2023-02-14T20:56:53.343Z,-0.25
2023-02-14T20:59:26.305Z,-0.34
2023-02-14T21:01:54.733Z,-0.35
2023-02-14T21:04:22.807Z,-0.44
2023-02-14T21:06:50.626Z,-0.51
2023-02-14T21:09:20.649Z,-0.42
2023-02-14T21:11:50.267Z,-0.44
2023-02-14T21:14:18.162Z,-0.47
2023-02-14T21:16:46.000Z,-0.39
2023-02-14T21:19:13.698Z,-0.40
2023-02-14T21:21:41.510Z,-0.44
2023-02-14T21:24:11.651Z,-0.50
2023-02-14T21:26:40.258Z,-0.52
2023-02-14T21:29:10.367Z,-0.61
2023-02-14T21:31:38.622Z,-0.64
2023-02-14T21:34:06.923Z,-0.67
2023-02-14T21:36:36.574Z,-0.67
2023-02-14T21:39:06.964Z,-0.67
2023-02-14T21:41:36.513Z,-0.73
2023-02-14T21:44:05.172Z,-0.74
2023-02-14T21:46:37.069Z,-0.73
2023-02-14T21:49:24.028Z,-0.69
2023-02-14T21:51:51.826Z,-0.62
2023-02-14T21:54:19.661Z,-0.74
2023-02-14T21:56:49.163Z,-0.71
2023-02-14T21:59:16.961Z,-0.70
2023-02-14T22:01:46.077Z,-0.72
2023-02-14T22:04:14.193Z,-0.56
2023-02-14T22:06:43.541Z,-0.52
2023-02-14T22:09:14.087Z,-0.51
2023-02-14T22:11:42.197Z,-0.55
2023-02-14T22:14:09.952Z,-0.56
2023-02-14T22:16:38.154Z,-0.70
2023-02-14T22:19:08.972Z,-0.62
2023-02-14T22:21:36.776Z,-0.60
2023-02-14T22:24:04.981Z,-0.64
2023-02-14T22:26:35.396Z,-0.66
2023-02-14T22:29:05.861Z,-0.69
2023-02-14T22:31:38.240Z,-0.69
2023-02-14T22:34:09.904Z,-0.61
2023-02-14T22:36:37.720Z,-0.57
2023-02-14T22:39:09.374Z,-0.58
2023-02-14T22:41:37.911Z,-0.65
2023-02-14T22:44:06.900Z,-0.75
2023-02-14T22:46:36.679Z,-0.78
2023-02-14T22:49:08.022Z,-0.84
2023-02-14T22:51:38.544Z,-0.83
2023-02-14T22:54:07.950Z,-0.89
2023-02-14T23:01:05.701Z,-0.90
2023-02-14T23:03:33.744Z,-0.91
2023-02-14T23:06:01.967Z,-1.00
2023-02-14T23:08:29.845Z,-0.97
2023-02-14T23:10:57.566Z,-0.93
2023-02-14T23:13:43.116Z,-0.92
2023-02-14T23:16:29.626Z,-0.81
2023-02-14T23:19:20.388Z,-0.83
2023-02-14T23:22:04.942Z,-0.86
2023-02-14T23:24:33.545Z,-0.95
2023-02-14T23:27:01.466Z,-0.93
2023-02-14T23:29:29.230Z,-0.94
2023-02-14T23:32:05.936Z,-0.95
2023-02-14T23:34:35.953Z,-0.99
2023-02-14T23:37:03.895Z,-1.02
2023-02-14T23:39:32.619Z,-1.04
2023-02-14T23:42:01.250Z,-1.14
2023-02-14T23:44:32.644Z,-1.28
2023-02-14T23:47:04.164Z,-1.33
2023-02-14T23:49:33.561Z,-1.39
2023-02-14T23:52:01.494Z,-1.40
2023-02-14T23:54:29.592Z,-1.36
2023-02-14T23:56:58.763Z,-1.37
2023-02-14T23:59:29.382Z,-1.41
